Time;durP1;ratioP1;P1;durP2;ratioP2;P2;SDS_P1;SDS_P2;PMS_P1;PMS_P2;Temp;Humidity;BMP_temperature;BMP_pressure;BME280_temperature;BME280_humidity;BME280_pressure;Samples;Min_cycle;Max_cycle;Signal;HPM_P1;HPM_P2
2021/10/22 00:01:46;;;;;;;0.40;0.20;;;;;;;12.25;60.61;99139.02;111616;1192;138586;-73
2021/10/22 00:04:14;;;;;;;0.40;0.20;;;;;;;12.14;61.10;99148.11;111655;1192;109240;-75
2021/10/22 00:06:42;;;;;;;0.40;0.20;;;;;;;12.05;62.06;99153.77;111835;1193;107167;-73
2021/10/22 00:09:11;;;;;;;0.40;0.30;;;;;;;11.92;61.89;99152.46;111900;1192;138828;-76
2021/10/22 00:11:43;;;;;;;0.40;0.30;;;;;;;11.84;61.22;99150.89;111739;1192;94024;-75
2021/10/22 00:14:13;;;;;;;0.40;0.30;;;;;;;11.83;60.75;99157.90;111641;1193;137359;-75
2021/10/22 00:16:41;;;;;;;0.40;0.30;;;;;;;11.75;60.37;99161.33;112040;1192;108565;-75
2021/10/22 00:19:10;;;;;;;0.40;0.30;;;;;;;11.64;60.66;99167.02;111593;1192;137692;-76
2021/10/22 00:21:38;;;;;;;0.40;0.30;;;;;;;11.57;61.03;99165.42;111739;1192;94447;-74
2021/10/22 00:24:06;;;;;;;0.40;0.30;;;;;;;11.49;61.14;99166.52;111703;1193;109109;-75
2021/10/22 00:26:34;;;;;;;0.40;0.30;;;;;;;11.50;60.78;99170.02;111670;1192;138315;-74
2021/10/22 00:29:02;;;;;;;0.40;0.30;;;;;;;11.48;60.68;99174.77;111788;1193;94414;-74
2021/10/22 00:31:31;;;;;;;0.40;0.30;;;;;;;11.50;60.49;99174.50;111683;1192;139037;-75
2021/10/22 00:33:59;;;;;;;0.40;0.30;;;;;;;11.43;60.60;99173.77;111737;1193;108622;-74
2021/10/22 00:36:27;;;;;;;0.40;0.30;;;;;;;11.45;60.64;99173.30;111742;1193;108193;-76
2021/10/22 00:38:55;;;;;;;0.40;0.30;;;;;;;11.47;60.59;99171.98;111615;1192;139256;-75
2021/10/22 00:41:25;;;;;;;0.40;0.30;;;;;;;11.47;60.10;99170.75;111732;1197;94520;-72
2021/10/22 00:43:53;;;;;;;0.40;0.30;;;;;;;11.45;60.09;99172.23;111650;1193;137395;-76
2021/10/22 00:46:25;;;;;;;0.40;0.30;;;;;;;11.43;60.05;99173.41;111787;1193;108067;-73
2021/10/22 00:48:53;;;;;;;0.40;0.30;;;;;;;11.49;59.93;99173.30;111804;1193;94106;-74
2021/10/22 00:51:21;;;;;;;0.40;0.30;;;;;;;11.55;59.79;99173.52;111601;1193;138045;-74
2021/10/22 00:53:49;;;;;;;0.40;0.30;;;;;;;11.54;59.32;99176.95;111664;1193;108469;-74
2021/10/22 00:56:18;;;;;;;0.40;0.30;;;;;;;11.53;59.47;99180.92;111432;1193;137045;-76
2021/10/22 00:58:46;;;;;;;0.40;0.30;;;;;;;11.51;59.38;99185.80;111784;1192;94885;-73
2021/10/22 01:01:14;;;;;;;0.40;0.30;;;;;;;11.51;59.61;99188.80;111663;1193;138201;-73
2021/10/22 01:03:43;;;;;;;0.40;0.30;;;;;;;11.47;59.52;99194.54;111841;1193;108492;-74
2021/10/22 01:06:11;;;;;;;0.40;0.30;;;;;;;11.45;59.21;99199.08;111495;1192;108815;-74
2021/10/22 01:08:39;;;;;;;0.40;0.30;;;;;;;11.43;59.09;99208.77;111597;1194;138694;-73
2021/10/22 01:11:07;;;;;;;0.40;0.30;;;;;;;11.37;59.19;99214.90;111519;1193;94469;-75
2021/10/22 01:13:35;;;;;;;0.40;0.30;;;;;;;11.39;59.04;99218.05;111606;1193;137487;-74
2021/10/22 01:16:03;;;;;;;0.40;0.30;;;;;;;11.47;59.05;99234.89;111345;1193;107759;-75
2021/10/22 01:18:32;;;;;;;0.40;0.30;;;;;;;11.43;58.42;99234.73;111842;1192;94610;-74
2021/10/22 01:21:05;;;;;;;0.40;0.30;;;;;;;11.35;57.37;99245.42;111308;1193;136819;-74
2021/10/22 01:23:33;;;;;;;0.40;0.30;;;;;;;11.28;56.59;99245.75;111663;1193;107500;-74
2021/10/22 01:26:01;;;;;;;0.40;0.40;;;;;;;11.24;56.46;99253.42;111620;1193;138621;-74
2021/10/22 01:28:29;;;;;;;0.40;0.30;;;;;;;11.28;56.99;99261.38;111634;1193;93976;-73
2021/10/22 01:30:58;;;;;;;0.40;0.30;;;;;;;11.30;56.35;99261.11;111793;1193;94684;-74
2021/10/22 01:33:27;;;;;;;0.40;0.30;;;;;;;11.23;54.08;99267.30;111648;1193;138116;-74
2021/10/22 01:35:55;;;;;;;0.40;0.30;;;;;;;11.14;53.94;99268.81;111733;1193;107670;-73
2021/10/22 01:38:23;;;;;;;0.40;0.40;;;;;;;11.06;53.56;99275.02;111680;1193;138151;-73
2021/10/22 01:40:55;;;;;;;0.50;0.40;;;;;;;11.00;53.61;99280.27;111676;1192;94003;-75
2021/10/22 01:43:25;;;;;;;0.50;0.40;;;;;;;10.96;53.33;99279.05;111496;1193;136944;-74
2021/10/22 01:45:53;;;;;;;0.40;0.40;;;;;;;10.84;52.51;99280.11;111915;1192;107273;-73
2021/10/22 01:48:21;;;;;;;0.40;0.40;;;;;;;10.71;52.48;99284.77;111772;1193;94938;-74
2021/10/22 01:50:49;;;;;;;0.50;0.40;;;;;;;10.67;53.01;99284.95;111698;1193;138419;-74
2021/10/22 01:53:18;;;;;;;0.40;0.40;;;;;;;10.65;52.97;99285.76;111710;1193;107685;-74
2021/10/22 01:55:47;;;;;;;0.40;0.40;;;;;;;10.56;53.24;99290.40;111600;1193;138032;-74
2021/10/22 01:58:15;;;;;;;0.50;0.40;;;;;;;10.48;53.47;99294.32;111475;1193;94518;-75
2021/10/22 02:00:44;;;;;;;0.40;0.40;;;;;;;10.41;53.95;99298.01;111830;1192;93962;-75
2021/10/22 02:03:11;;;;;;;0.50;0.40;;;;;;;10.37;54.17;99293.89;111635;1192;136902;-75
2021/10/22 02:05:39;;;;;;;0.40;0.40;;;;;;;10.37;54.50;99295.85;111792;1192;105314;-75
2021/10/22 02:08:08;;;;;;;0.50;0.40;;;;;;;10.30;54.72;99298.77;111665;1192;136935;-75
2021/10/22 02:10:37;;;;;;;0.50;0.50;;;;;;;10.21;54.45;99297.73;111791;1192;95079;-73
2021/10/22 02:13:05;;;;;;;0.40;0.40;;;;;;;10.20;54.41;99302.38;111969;1193;108623;-75
2021/10/22 02:15:33;;;;;;;0.50;0.40;;;;;;;10.20;54.55;99301.34;111657;1193;136797;-74
2021/10/22 02:18:01;;;;;;;0.40;0.40;;;;;;;10.20;54.60;99305.56;111708;1196;94328;-74
2021/10/22 02:20:29;;;;;;;0.50;0.40;;;;;;;10.20;54.59;99311.98;111555;1193;137848;-74
2021/10/22 02:22:56;;;;;;;0.40;0.40;;;;;;;10.15;54.52;99319.44;111837;1192;108377;-73
2021/10/22 02:25:25;;;;;;;0.40;0.40;;;;;;;10.09;54.81;99317.95;111534;1192;137538;-74
2021/10/22 02:27:53;;;;;;;0.50;0.40;;;;;;;10.09;54.69;99321.29;111813;1192;94905;-73
2021/10/22 02:30:21;;;;;;;0.50;0.50;;;;;;;10.11;54.77;99324.05;111500;1193;94167;-74
2021/10/22 02:32:49;;;;;;;0.50;0.50;;;;;;;10.11;54.56;99328.33;111735;1193;137824;-74
2021/10/22 02:35:17;;;;;;;0.40;0.40;;;;;;;10.08;54.82;99329.33;111785;1193;107206;-76
2021/10/22 02:37:46;;;;;;;0.60;0.60;;;;;;;10.05;55.05;99328.92;111720;1193;138340;-75
2021/10/22 02:40:15;;;;;;;0.50;0.40;;;;;;;10.05;55.28;99336.72;111691;1193;94038;-74
2021/10/22 02:42:44;;;;;;;0.50;0.50;;;;;;;10.04;55.36;99329.67;112145;1191;108624;-77
2021/10/22 02:45:13;;;;;;;0.50;0.40;;;;;;;10.04;55.48;99322.41;111731;1193;138091;-74
2021/10/22 02:47:41;;;;;;;0.50;0.50;;;;;;;10.03;55.61;99328.82;111825;1192;94038;-74
2021/10/22 02:50:09;;;;;;;0.50;0.40;;;;;;;10.01;55.76;99339.37;111884;1193;137138;-74
2021/10/22 02:52:37;;;;;;;0.40;0.40;;;;;;;10.01;55.62;99342.72;111712;1192;108452;-73
2021/10/22 02:55:06;;;;;;;0.50;0.50;;;;;;;10.01;55.81;99339.54;111576;1193;108039;-75
2021/10/22 02:57:34;;;;;;;0.40;0.40;;;;;;;10.06;55.91;99351.93;111595;1193;139375;-74
2021/10/22 03:00:04;;;;;;;0.40;0.40;;;;;;;10.06;55.68;99355.30;111779;1193;94466;-74
2021/10/22 03:02:32;;;;;;;0.50;0.40;;;;;;;10.13;55.75;99355.38;111677;1193;137440;-74
2021/10/22 03:05:01;;;;;;;0.50;0.40;;;;;;;10.15;55.81;99358.48;111786;1193;108072;-74
2021/10/22 03:07:29;;;;;;;0.50;0.40;;;;;;;10.12;55.87;99363.22;111649;1194;138535;-75
2021/10/22 03:09:56;;;;;;;0.50;0.40;;;;;;;10.13;55.91;99357.32;111739;1193;93989;-74
2021/10/22 03:12:24;;;;;;;0.50;0.40;;;;;;;10.15;55.96;99364.35;111767;1193;108580;-74
2021/10/22 03:14:52;;;;;;;0.50;0.40;;;;;;;10.10;55.82;99367.20;111668;1192;137288;-74
2021/10/22 03:17:21;;;;;;;0.50;0.40;;;;;;;10.09;55.67;99364.21;111802;1193;93968;-75
2021/10/22 03:19:49;;;;;;;0.50;0.40;;;;;;;10.05;55.78;99371.46;111698;1193;138307;-75
2021/10/22 03:22:17;;;;;;;0.50;0.50;;;;;;;10.02;55.61;99376.55;111659;1193;108490;-74
2021/10/22 03:24:45;;;;;;;0.50;0.40;;;;;;;10.00;55.62;99377.37;111754;1192;108068;-75
2021/10/22 03:27:15;;;;;;;0.50;0.50;;;;;;;10.03;55.67;99383.09;111590;1197;137714;-75
2021/10/22 03:29:43;;;;;;;0.50;0.40;;;;;;;10.05;55.76;99381.59;112140;1192;93960;-74
2021/10/22 03:32:11;;;;;;;0.50;0.50;;;;;;;9.99;55.52;99389.10;111544;1193;136695;-74
2021/10/22 03:34:40;;;;;;;0.50;0.50;;;;;;;9.94;55.63;99391.06;111819;1193;108462;-74
2021/10/22 03:37:11;;;;;;;0.50;0.50;;;;;;;9.92;55.60;99400.22;111797;1192;94051;-76
2021/10/22 03:39:39;;;;;;;0.90;0.60;;;;;;;9.87;55.46;99402.14;111711;1193;137129;-74
2021/10/22 03:42:07;;;;;;;0.50;0.50;;;;;;;9.85;55.45;99416.05;111813;1193;108742;-75
2021/10/22 03:44:35;;;;;;;0.50;0.40;;;;;;;9.85;55.38;99416.23;111717;1193;137993;-75
2021/10/22 03:47:04;;;;;;;0.50;0.50;;;;;;;9.84;55.27;99418.76;111887;1192;94000;-74
2021/10/22 03:49:32;;;;;;;0.50;0.50;;;;;;;9.82;55.41;99425.77;111674;1192;137289;-74
2021/10/22 03:52:00;;;;;;;0.50;0.50;;;;;;;9.77;55.26;99422.95;111759;1193;107386;-75
2021/10/22 03:54:28;;;;;;;0.50;0.40;;;;;;;9.76;55.25;99428.14;111656;1193;108299;-75
2021/10/22 03:56:57;;;;;;;0.50;0.50;;;;;;;9.72;55.29;99430.05;111722;1193;138452;-74
2021/10/22 03:59:25;;;;;;;0.50;0.50;;;;;;;9.67;55.33;99433.41;111627;1193;95279;-77
2021/10/22 04:01:52;;;;;;;0.50;0.50;;;;;;;9.64;55.42;99432.99;111702;1193;138578;-75
2021/10/22 04:04:27;;;;;;;0.50;0.50;;;;;;;9.64;55.37;99439.40;111665;1193;108223;-77
2021/10/22 04:06:56;;;;;;;0.50;0.50;;;;;;;9.57;55.61;99438.92;111824;1197;94043;-75
2021/10/22 04:09:30;;;;;;;0.50;0.50;;;;;;;9.53;55.79;99446.53;111725;1192;137775;-75
2021/10/22 04:11:59;;;;;;;0.50;0.50;;;;;;;9.52;55.95;99446.58;111844;1193;108186;-76
2021/10/22 04:14:26;;;;;;;0.50;0.50;;;;;;;9.47;56.08;99448.33;111588;1193;137886;-74
2021/10/22 04:16:56;;;;;;;0.50;0.50;;;;;;;9.43;56.38;99451.50;111801;1192;94606;-74
2021/10/22 04:19:24;;;;;;;0.50;0.50;;;;;;;9.43;56.21;99458.24;111680;1193;138465;-75
2021/10/22 04:21:52;;;;;;;0.50;0.50;;;;;;;9.48;56.19;99460.36;111786;1193;109647;-75
2021/10/22 04:24:20;;;;;;;0.50;0.40;;;;;;;9.49;55.93;99464.54;111766;1192;108032;-73
2021/10/22 04:26:48;;;;;;;0.50;0.40;;;;;;;9.53;56.01;99456.98;111708;1193;136813;-75
2021/10/22 04:29:16;;;;;;;0.40;0.40;;;;;;;9.56;55.79;99459.17;111782;1193;93975;-77
2021/10/22 04:31:44;;;;;;;0.50;0.50;;;;;;;9.52;56.05;99455.61;111516;1196;138279;-75
2021/10/22 04:34:12;;;;;;;0.50;0.50;;;;;;;9.49;56.11;99463.16;111797;1193;108106;-75
2021/10/22 04:36:42;;;;;;;0.50;0.50;;;;;;;9.46;56.28;99463.61;111699;1193;94812;-74
2021/10/22 04:41:56;;;;;;;0.50;0.50;;;;;;;9.41;56.24;99469.12;111700;1192;107572;-76
2021/10/22 04:44:26;;;;;;;0.40;0.40;;;;;;;9.39;56.27;99469.91;111754;1193;138158;-76
2021/10/22 04:46:53;;;;;;;0.50;0.40;;;;;;;9.35;56.39;99473.95;111805;1194;94031;-75
2021/10/22 04:49:21;;;;;;;0.50;0.40;;;;;;;9.32;56.48;99472.80;111759;1192;136922;-75
2021/10/22 04:51:49;;;;;;;0.50;0.50;;;;;;;9.21;56.64;99475.67;111536;1193;108239;-77
2021/10/22 04:54:17;;;;;;;0.50;0.50;;;;;;;9.15;56.96;99478.38;111550;1193;107026;-75
2021/10/22 04:56:45;;;;;;;0.50;0.50;;;;;;;9.09;57.28;99482.64;111613;1193;137129;-74
2021/10/22 04:59:12;;;;;;;0.50;0.50;;;;;;;9.07;57.28;99481.30;111773;1192;95129;-76
2021/10/22 05:01:40;;;;;;;0.50;0.50;;;;;;;9.08;57.25;99489.77;111722;1192;138261;-76
2021/10/22 05:04:09;;;;;;;0.50;0.50;;;;;;;9.09;57.18;99493.48;111513;1193;105230;-75
2021/10/22 05:06:37;;;;;;;0.50;0.50;;;;;;;9.09;57.42;99490.45;111845;1193;95967;-76
2021/10/22 05:09:05;;;;;;;0.50;0.50;;;;;;;9.05;57.39;99494.99;111476;1193;137061;-76
2021/10/22 05:11:32;;;;;;;0.50;0.50;;;;;;;9.04;57.36;99496.11;112034;1194;107294;-78
2021/10/22 05:14:00;;;;;;;0.50;0.50;;;;;;;8.99;57.37;99497.84;111603;1193;138165;-74
2021/10/22 05:16:28;;;;;;;0.50;0.50;;;;;;;8.99;57.42;99499.63;111972;1193;93982;-75
2021/10/22 05:18:56;;;;;;;0.50;0.50;;;;;;;8.97;57.40;99504.86;112199;1193;94435;-78
2021/10/22 05:21:24;;;;;;;0.50;0.50;;;;;;;8.95;57.60;99504.20;111938;1192;138080;-75
2021/10/22 05:23:52;;;;;;;0.50;0.50;;;;;;;8.93;57.57;99507.63;111940;1193;108184;-75
2021/10/22 05:26:20;;;;;;;0.50;0.50;;;;;;;8.94;57.56;99511.66;111840;1192;135829;-75
2021/10/22 05:28:48;;;;;;;0.50;0.50;;;;;;;8.92;57.66;99514.39;111811;1193;94566;-76
2021/10/22 05:31:15;;;;;;;0.60;0.60;;;;;;;8.88;57.86;99524.62;111787;1192;108614;-76
2021/10/22 05:33:43;;;;;;;0.50;0.50;;;;;;;8.90;57.78;99525.42;111874;1193;138705;-75
2021/10/22 05:36:11;;;;;;;0.50;0.50;;;;;;;8.91;57.56;99529.11;111646;1193;94062;-76
2021/10/22 05:38:39;;;;;;;0.50;0.50;;;;;;;8.93;57.55;99525.16;111708;1193;137187;-74
2021/10/22 05:41:07;;;;;;;0.50;0.50;;;;;;;8.90;57.41;99532.00;111789;1192;108535;-74
2021/10/22 05:43:34;;;;;;;0.50;0.50;;;;;;;8.86;57.37;99531.58;111690;1192;137022;-75
2021/10/22 05:46:02;;;;;;;0.50;0.50;;;;;;;8.81;57.28;99534.78;111780;1192;94986;-75
2021/10/22 05:48:30;;;;;;;0.50;0.50;;;;;;;8.75;57.48;99541.67;111775;1193;94065;-75
2021/10/22 05:51:00;;;;;;;0.50;0.50;;;;;;;8.76;57.47;99540.95;111512;1193;137356;-75
2021/10/22 05:53:28;;;;;;;0.50;0.50;;;;;;;8.80;57.35;99545.95;111789;1192;107213;-75
2021/10/22 05:55:56;;;;;;;0.50;0.50;;;;;;;8.78;57.27;99549.38;112006;1192;138392;-74
2021/10/22 05:58:23;;;;;;;0.50;0.50;;;;;;;8.78;57.33;99552.73;111780;1193;94769;-75
2021/10/22 06:00:51;;;;;;;0.50;0.50;;;;;;;8.80;57.44;99566.13;111773;1193;107590;-75
2021/10/22 06:03:19;;;;;;;0.50;0.50;;;;;;;8.82;57.31;99559.68;111639;1194;136945;-77
2021/10/22 06:05:52;;;;;;;0.50;0.50;;;;;;;8.86;57.41;99561.86;111735;1193;94259;-74
2021/10/22 06:08:21;;;;;;;0.50;0.40;;;;;;;8.87;57.21;99568.91;111669;1193;139343;-76
2021/10/22 06:10:49;;;;;;;0.50;0.50;;;;;;;8.89;57.03;99569.74;111840;1193;108635;-77
2021/10/22 06:13:17;;;;;;;0.50;0.50;;;;;;;8.90;57.14;99570.21;111826;1193;106623;-75
2021/10/22 06:15:45;;;;;;;0.50;0.50;;;;;;;8.94;56.94;99573.64;111600;1199;137872;-75
2021/10/22 06:18:15;;;;;;;0.50;0.50;;;;;;;8.84;56.80;99573.08;111973;1192;94740;-76
2021/10/22 06:21:35;;;;;;;0.50;0.50;;;;;;;8.78;57.05;99589.55;111604;1192;137041;-81
2021/10/22 06:26:18;;;;;;;0.50;0.50;;;;;;;8.77;57.14;99594.20;111654;1192;137784;-76
2021/10/22 06:28:47;;;;;;;0.50;0.50;;;;;;;8.86;57.11;99601.87;111809;1193;94003;-76
2021/10/22 06:31:15;;;;;;;0.50;0.50;;;;;;;8.97;56.87;99607.71;111895;1192;107515;-76
2021/10/22 06:33:44;;;;;;;0.50;0.50;;;;;;;9.05;56.73;99609.77;111665;1193;137408;-75
2021/10/22 06:36:12;;;;;;;0.50;0.50;;;;;;;9.08;56.50;99607.88;111528;1194;94173;-76
2021/10/22 06:38:40;;;;;;;0.50;0.50;;;;;;;9.09;56.47;99600.06;111682;1196;136451;-75
2021/10/22 06:41:08;;;;;;;0.50;0.50;;;;;;;9.15;56.60;99600.77;111837;1192;108533;-75
2021/10/22 06:43:38;;;;;;;0.50;0.50;;;;;;;9.20;56.54;99604.13;111575;1192;138290;-76
2021/10/22 06:46:07;;;;;;;0.50;0.50;;;;;;;9.21;56.43;99606.21;111846;1199;93941;-77
2021/10/22 06:48:37;;;;;;;0.50;0.50;;;;;;;9.25;56.17;99601.85;111724;1193;94938;-76
2021/10/22 06:51:06;;;;;;;0.50;0.50;;;;;;;9.27;56.10;99611.32;111702;1193;136697;-76
2021/10/22 06:53:35;;;;;;;0.50;0.40;;;;;;;9.30;56.20;99612.81;111746;1193;108167;-75
2021/10/22 06:56:04;;;;;;;0.50;0.40;;;;;;;9.33;55.90;99620.67;111491;1193;137415;-75
2021/10/22 06:58:31;;;;;;;0.50;0.50;;;;;;;9.38;55.87;99626.04;111745;1193;94234;-76
2021/10/22 07:01:00;;;;;;;0.50;0.50;;;;;;;9.43;55.87;99627.64;111696;1193;108580;-76
2021/10/22 07:03:38;;;;;;;0.50;0.50;;;;;;;9.47;55.86;99631.20;111658;1193;136775;-74
2021/10/22 07:08:54;;;;;;;0.50;0.50;;;;;;;9.56;55.68;99640.30;111583;1193;136895;-76
2021/10/22 07:11:23;;;;;;;0.50;0.40;;;;;;;9.60;55.65;99636.98;111474;1193;108966;-75
2021/10/22 07:13:54;;;;;;;0.50;0.50;;;;;;;9.63;55.55;99637.03;111634;1192;138572;-76
2021/10/22 07:16:24;;;;;;;0.50;0.50;;;;;;;9.64;55.42;99633.98;111935;1193;93986;-75
2021/10/22 07:18:52;;;;;;;0.50;0.50;;;;;;;9.73;55.47;99634.75;111797;1192;94035;-74
2021/10/22 07:21:20;;;;;;;0.40;0.40;;;;;;;9.77;55.17;99642.60;111769;1193;137064;-73
2021/10/22 07:23:49;;;;;;;0.50;0.40;;;;;;;9.81;55.10;99648.10;111880;1192;108336;-75
2021/10/22 07:26:19;;;;;;;0.50;0.50;;;;;;;9.92;55.31;99650.23;111427;1193;136857;-74
2021/10/22 07:28:47;;;;;;;0.50;0.40;;;;;;;9.89;54.85;99647.10;111802;1193;94480;-75
2021/10/22 07:31:15;;;;;;;0.40;0.40;;;;;;;9.88;54.92;99642.36;111781;1193;107493;-77
2021/10/22 07:33:44;;;;;;;0.40;0.40;;;;;;;9.93;54.75;99649.81;111947;1192;136653;-77
2021/10/22 07:36:13;;;;;;;0.50;0.40;;;;;;;9.99;54.53;99655.98;111816;1194;94012;-75
2021/10/22 07:38:43;;;;;;;0.40;0.40;;;;;;;10.10;54.48;99660.21;111312;1193;136590;-75
2021/10/22 07:41:13;;;;;;;0.40;0.40;;;;;;;10.22;54.32;99660.64;111515;1192;107619;-76
2021/10/22 07:43:43;;;;;;;0.50;0.40;;;;;;;10.35;53.75;99660.37;111716;1193;138350;-76
2021/10/22 07:46:12;;;;;;;0.40;0.40;;;;;;;10.43;53.12;99660.98;111739;1193;94112;-76
2021/10/22 07:48:42;;;;;;;0.50;0.40;;;;;;;10.46;52.92;99660.70;111876;1193;94481;-74
2021/10/22 07:51:11;;;;;;;0.50;0.40;;;;;;;10.41;52.75;99667.65;111436;1193;138088;-74
2021/10/22 07:53:39;;;;;;;0.50;0.40;;;;;;;10.41;52.81;99670.83;111813;1193;107188;-76
2021/10/22 07:56:07;;;;;;;0.50;0.40;;;;;;;10.48;52.79;99671.80;111768;1192;138301;-75
2021/10/22 07:58:34;;;;;;;0.40;0.40;;;;;;;10.60;52.78;99674.19;111847;1192;93992;-75
2021/10/22 08:01:03;;;;;;;0.40;0.40;;;;;;;10.66;52.48;99675.58;111529;1193;108180;-76
2021/10/22 08:03:32;;;;;;;0.50;0.40;;;;;;;10.70;52.36;99676.81;111740;1192;137643;-76
2021/10/22 08:06:02;;;;;;;0.50;0.40;;;;;;;10.70;52.00;99678.95;111739;1193;93969;-75
2021/10/22 08:08:30;;;;;;;0.40;0.40;;;;;;;10.67;51.67;99682.80;111406;1193;138600;-75
2021/10/22 08:10:59;;;;;;;0.40;0.40;;;;;;;10.58;51.80;99685.09;111795;1193;108648;-78
2021/10/22 08:13:27;;;;;;;0.40;0.40;;;;;;;10.62;51.95;99687.23;111593;1192;137365;-76
2021/10/22 08:15:56;;;;;;;0.40;0.40;;;;;;;10.69;51.99;99687.34;111802;1193;96079;-76
2021/10/22 08:18:24;;;;;;;0.50;0.50;;;;;;;10.66;51.18;99689.40;111856;1193;93958;-75
2021/10/22 08:20:59;;;;;;;0.40;0.40;;;;;;;10.65;51.27;99687.85;111700;1196;136872;-75
2021/10/22 08:23:28;;;;;;;0.40;0.40;;;;;;;10.69;51.56;99683.77;111648;1192;106607;-75
2021/10/22 08:25:56;;;;;;;0.40;0.40;;;;;;;10.76;51.67;99687.24;111686;1192;138022;-75
2021/10/22 08:28:24;;;;;;;0.40;0.40;;;;;;;10.85;51.36;99688.48;111604;1193;94455;-75
2021/10/22 08:30:55;;;;;;;0.40;0.40;;;;;;;10.92;50.96;99686.64;111801;1193;107874;-76
2021/10/22 08:33:25;;;;;;;0.40;0.30;;;;;;;10.93;50.62;99690.14;111668;1193;137825;-76
2021/10/22 08:35:57;;;;;;;0.40;0.40;;;;;;;10.92;50.50;99690.36;111904;1193;93966;-75
2021/10/22 08:38:26;;;;;;;0.40;0.30;;;;;;;10.88;50.32;99700.44;111641;1193;137646;-75
2021/10/22 08:40:56;;;;;;;0.40;0.30;;;;;;;10.84;50.30;99699.52;111821;1192;108799;-75
2021/10/22 08:43:25;;;;;;;0.50;0.40;;;;;;;10.91;50.66;99704.98;111680;1192;139044;-75
2021/10/22 08:45:55;;;;;;;0.40;0.30;;;;;;;10.97;50.36;99699.73;111711;1193;96328;-74
2021/10/22 08:48:24;;;;;;;0.50;0.50;;;;;;;11.02;50.13;99701.88;111958;1193;94458;-76
2021/10/22 08:50:52;;;;;;;0.40;0.40;;;;;;;11.12;50.15;99700.42;111369;1193;138919;-75
2021/10/22 08:53:22;;;;;;;0.40;0.40;;;;;;;11.23;49.74;99701.23;111945;1193;108082;-75
2021/10/22 08:55:51;;;;;;;0.40;0.30;;;;;;;11.28;49.35;99704.02;111703;1192;138192;-76
2021/10/22 08:58:19;;;;;;;0.40;0.30;;;;;;;11.36;49.03;99704.42;111936;1192;93977;-77
2021/10/22 09:00:48;;;;;;;0.40;0.30;;;;;;;11.46;48.57;99706.50;111532;1193;108281;-75
2021/10/22 09:03:20;;;;;;;0.40;0.30;;;;;;;11.54;48.19;99710.29;111526;1193;138371;-76
2021/10/22 09:06:00;;;;;;;0.40;0.30;;;;;;;11.69;48.56;99707.52;111751;1192;94355;-75
2021/10/22 09:08:35;;;;;;;0.40;0.30;;;;;;;12.05;48.50;99707.08;111449;1193;138404;-76
2021/10/22 09:11:33;;;;;;;0.40;0.30;;;;;;;12.33;47.24;99703.73;111675;1193;108515;-76
2021/10/22 09:14:04;;;;;;;0.40;0.30;;;;;;;12.34;46.40;99695.31;111646;1192;138355;-76
2021/10/22 09:16:40;;;;;;;0.40;0.30;;;;;;;12.49;46.60;99695.71;111739;1193;93976;-76
2021/10/22 09:19:08;;;;;;;0.40;0.30;;;;;;;12.59;46.24;99703.06;111962;1192;94467;-75
2021/10/22 09:21:36;;;;;;;0.40;0.30;;;;;;;12.57;45.95;99691.80;111682;1192;137212;-75
2021/10/22 09:24:15;;;;;;;0.40;0.30;;;;;;;12.57;45.76;99696.95;111838;1192;108061;-76
2021/10/22 09:26:51;;;;;;;0.40;0.20;;;;;;;12.51;45.90;99703.42;111418;1193;137964;-77
2021/10/22 09:29:26;;;;;;;0.40;0.30;;;;;;;12.43;46.08;99699.69;111906;1193;94419;-76
2021/10/22 09:31:57;;;;;;;0.40;0.30;;;;;;;12.47;46.07;99703.27;111638;1193;137060;-76
2021/10/22 09:34:34;;;;;;;0.40;0.30;;;;;;;12.62;45.42;99703.82;111717;1193;108170;-76
2021/10/22 09:37:04;;;;;;;0.40;0.30;;;;;;;12.57;45.56;99700.85;111650;1193;94082;-75
2021/10/22 09:39:34;;;;;;;0.40;0.30;;;;;;;12.46;45.58;99696.92;111737;1193;136969;-74
2021/10/22 09:42:02;;;;;;;0.40;0.30;;;;;;;12.35;45.92;99701.48;111453;1193;108219;-76
2021/10/22 09:44:39;;;;;;;0.40;0.30;;;;;;;12.30;46.04;99700.81;111719;1193;138101;-76
2021/10/22 09:47:07;;;;;;;0.40;0.30;;;;;;;12.12;45.82;99704.45;111933;1193;94513;-75
2021/10/22 09:49:36;;;;;;;0.40;0.30;;;;;;;12.04;46.76;99711.38;111738;1193;138025;-74
2021/10/22 09:52:25;;;;;;;0.40;0.30;;;;;;;11.98;46.23;99713.27;111805;1193;108637;-75
2021/10/22 09:55:06;;;;;;;0.40;0.30;;;;;;;11.84;46.30;99708.14;111852;1192;107621;-75
2021/10/22 09:57:35;;;;;;;0.40;0.30;;;;;;;11.85;46.28;99705.23;111725;1192;138578;-75
2021/10/22 10:00:11;;;;;;;0.40;0.30;;;;;;;11.96;46.62;99701.23;111845;1192;94406;-77
2021/10/22 10:02:39;;;;;;;0.40;0.30;;;;;;;12.13;46.64;99702.12;111818;1197;136833;-75
2021/10/22 10:05:11;;;;;;;0.40;0.30;;;;;;;12.24;45.80;99697.73;112161;1192;107064;-75
2021/10/22 10:07:41;;;;;;;0.40;0.30;;;;;;;12.28;45.49;99694.14;111695;1193;138796;-76
2021/10/22 10:10:11;;;;;;;0.40;0.30;;;;;;;12.31;45.62;99690.80;111860;1193;94413;-75
2021/10/22 10:12:39;;;;;;;0.40;0.30;;;;;;;12.48;45.43;99689.17;111880;1192;108296;-74
2021/10/22 10:15:09;;;;;;;0.40;0.30;;;;;;;12.98;44.63;99690.76;111681;1191;138428;-75
2021/10/22 10:17:41;;;;;;;0.40;0.20;;;;;;;13.29;43.01;99691.39;111874;1193;94284;-75
2021/10/22 10:20:10;;;;;;;0.40;0.20;;;;;;;13.13;42.76;99691.30;111716;1193;137632;-75
2021/10/22 10:22:43;;;;;;;0.40;0.20;;;;;;;12.93;43.82;99680.66;111827;1193;108493;-75
2021/10/22 10:25:12;;;;;;;0.40;0.30;;;;;;;12.85;43.94;99689.04;111866;1193;108801;-76
2021/10/22 10:27:48;;;;;;;0.40;0.20;;;;;;;12.77;44.28;99683.01;111804;1193;137411;-76
2021/10/22 10:30:45;;;;;;;0.40;0.20;;;;;;;12.74;44.58;99678.00;111505;1193;93951;-76
2021/10/22 10:33:31;;;;;;;0.40;0.20;;;;;;;12.83;44.93;99677.73;111578;1192;136819;-76
2021/10/22 10:36:00;;;;;;;0.40;0.30;;;;;;;12.86;44.54;99680.98;111789;1193;108046;-74
2021/10/22 10:38:46;;;;;;;0.40;0.20;;;;;;;12.78;44.30;99678.73;111732;1192;137388;-74
2021/10/22 10:41:17;;;;;;;0.40;0.30;;;;;;;12.73;44.59;99679.30;111837;1193;94172;-76
2021/10/22 10:43:45;;;;;;;0.40;0.20;;;;;;;12.68;44.71;99681.47;111705;1192;138958;-78
2021/10/22 10:46:32;;;;;;;0.40;0.30;;;;;;;12.52;44.73;99682.72;111480;1193;108286;-76
2021/10/22 10:49:00;;;;;;;0.40;0.30;;;;;;;12.42;44.91;99674.30;111906;1193;94429;-76
2021/10/22 10:51:38;;;;;;;0.40;0.30;;;;;;;12.40;44.94;99668.70;111726;1193;138351;-76
2021/10/22 10:54:06;;;;;;;0.40;0.30;;;;;;;12.41;45.26;99660.64;111878;1193;109258;-75
2021/10/22 10:56:36;;;;;;;0.40;0.30;;;;;;;12.37;45.36;99657.96;111854;1193;138209;-75
2021/10/22 10:59:04;;;;;;;0.40;0.30;;;;;;;12.29;45.30;99662.42;111871;1191;94397;-76
2021/10/22 11:01:36;;;;;;;0.40;0.30;;;;;;;12.28;45.61;99660.33;111641;1193;137402;-75
2021/10/22 11:04:05;;;;;;;0.40;0.30;;;;;;;12.25;45.57;99672.77;111817;1192;108526;-76
2021/10/22 11:06:47;;;;;;;0.40;0.30;;;;;;;12.24;45.02;99670.70;111824;1193;106908;-75
2021/10/22 11:09:35;;;;;;;0.40;0.30;;;;;;;12.24;44.91;99668.00;111774;1193;137913;-74
2021/10/22 11:12:04;;;;;;;0.40;0.30;;;;;;;12.27;44.99;99655.75;111787;1193;94342;-76
2021/10/22 11:15:00;;;;;;;0.40;0.30;;;;;;;12.42;45.15;99660.57;111849;1192;138239;-75
2021/10/22 11:17:28;;;;;;;0.40;0.30;;;;;;;12.59;44.98;99659.65;111864;1193;108082;-76
2021/10/22 11:19:58;;;;;;;0.40;0.30;;;;;;;12.71;44.70;99650.01;111771;1193;138552;-76
2021/10/22 11:22:28;;;;;;;0.40;0.30;;;;;;;12.82;44.74;99650.74;112000;1193;94111;-75
2021/10/22 11:24:56;;;;;;;0.40;0.30;;;;;;;12.80;43.72;99651.54;111817;1191;109168;-76
2021/10/22 11:27:25;;;;;;;0.40;0.30;;;;;;;12.70;43.42;99649.66;111762;1193;139059;-75
2021/10/22 11:29:54;;;;;;;0.40;0.30;;;;;;;12.68;43.69;99651.20;111891;1193;94072;-76
2021/10/22 11:32:24;;;;;;;0.40;0.20;;;;;;;12.61;43.23;99653.31;111690;1193;138417;-76
2021/10/22 11:35:02;;;;;;;0.40;0.30;;;;;;;12.59;43.51;99646.27;111791;1193;109096;-75
2021/10/22 11:37:36;;;;;;;0.40;0.30;;;;;;;12.59;43.36;99650.91;111552;1192;138333;-78
2021/10/22 11:40:14;;;;;;;0.40;0.30;;;;;;;12.56;43.16;99650.70;112041;1192;94488;-80
2021/10/22 11:42:42;;;;;;;0.40;0.30;;;;;;;12.56;43.10;99648.20;111844;1191;94552;-77